createdAt,value
2023-04-13T00:00:00.034Z,5.9
2023-04-13T00:05:00.538Z,6.1
2023-04-13T00:09:59.924Z,5.8
2023-04-13T00:15:00.180Z,6
2023-04-13T00:20:00.057Z,5.7
2023-04-13T00:24:59.978Z,5.6
2023-04-13T00:30:00.342Z,5.8
2023-04-13T00:35:00.156Z,5.8
2023-04-13T00:40:00.147Z,6
2023-04-13T00:45:00.329Z,5.7
2023-04-13T00:49:59.945Z,5.8
2023-04-13T00:55:00.287Z,5.7
2023-04-13T01:00:00.293Z,5.7
2023-04-13T01:05:00.313Z,5.8
2023-04-13T01:10:00.005Z,5.8
2023-04-13T01:15:04.173Z,5.7
2023-04-13T01:20:01.642Z,5.9
2023-04-13T01:25:09.200Z,5.8
2023-04-13T01:30:00.712Z,5.8
2023-04-13T01:35:00.165Z,5.9
2023-04-13T01:40:00.225Z,5.8
2023-04-13T01:45:00.286Z,5.8
2023-04-13T01:50:02.521Z,5.8
2023-04-13T01:55:00.807Z,5.8
2023-04-13T02:00:00.420Z,5.8
2023-04-13T02:04:59.850Z,5.8
2023-04-13T02:09:59.886Z,5.7
2023-04-13T02:15:00.249Z,5.7
2023-04-13T02:20:00.077Z,5.7
2023-04-13T02:24:59.815Z,5.7
2023-04-13T02:30:00.308Z,5.9
2023-04-13T02:35:00.094Z,5.8
2023-04-13T02:39:59.947Z,5.7
2023-04-13T02:45:00.072Z,5.6
2023-04-13T02:49:59.871Z,5.5
2023-04-13T02:55:00.052Z,5.4
2023-04-13T02:59:59.798Z,5.3
2023-04-13T03:05:00.451Z,5.3
2023-04-13T03:09:59.993Z,5.3
2023-04-13T03:15:00.382Z,5.4
2023-04-13T03:19:59.895Z,5.4
2023-04-13T03:25:00.293Z,5.4
2023-04-13T03:29:59.778Z,5.5
2023-04-13T03:35:00.101Z,5.5
2023-04-13T03:39:59.729Z,5.5
2023-04-13T03:44:59.909Z,5.6
2023-04-13T03:50:00.008Z,5.6
2023-04-13T03:54:59.926Z,5.7
2023-04-13T04:00:00.005Z,5.7
2023-04-13T04:05:00.066Z,5.7
2023-04-13T04:09:59.773Z,5.7
2023-04-13T04:14:59.736Z,5.7
2023-04-13T04:19:59.874Z,5.7
2023-04-13T04:24:59.753Z,5.8
2023-04-13T04:29:59.993Z,5.9
2023-04-13T04:52:03.971Z,5.8
2023-04-13T04:52:09.995Z,5.8
